createdAt,value
2018-07-16T00:01:46.435Z,95353.00
2018-07-16T00:04:18.554Z,95354.00
2018-07-16T00:06:50.488Z,95351.00
2018-07-16T00:09:22.554Z,95349.00
2018-07-16T00:11:54.616Z,95342.00
2018-07-16T00:14:26.178Z,95343.00
2018-07-16T00:16:57.807Z,95350.00
2018-07-16T00:19:30.253Z,95349.00
2018-07-16T00:22:02.185Z,95351.00
2018-07-16T00:24:34.482Z,95352.00
2018-07-16T00:27:06.670Z,95353.00
2018-07-16T00:29:38.709Z,95351.00
2018-07-16T00:32:10.689Z,95356.00
2018-07-16T00:34:43.222Z,95356.00
2018-07-16T00:37:15.085Z,95358.00
2018-07-16T00:39:46.990Z,95351.00
2018-07-16T00:42:18.937Z,95355.00
2018-07-16T00:44:51.030Z,95358.00
2018-07-16T00:47:23.528Z,95362.00
2018-07-16T00:49:55.496Z,95358.00
2018-07-16T00:52:27.389Z,95351.00
2018-07-16T00:55:02.269Z,95351.00
2018-07-16T00:57:34.611Z,95343.00
2018-07-16T01:00:06.669Z,95334.00
2018-07-16T01:02:38.599Z,95330.00
2018-07-16T01:05:10.782Z,95329.00
2018-07-16T01:07:42.629Z,95324.00
2018-07-16T01:10:14.590Z,95316.00
2018-07-16T01:12:46.486Z,95310.00
2018-07-16T01:15:18.791Z,95306.00
2018-07-16T01:17:50.650Z,95305.00
2018-07-16T01:20:23.887Z,95310.00
2018-07-16T01:22:55.730Z,95312.00
2018-07-16T01:25:27.681Z,95311.00
2018-07-16T01:27:59.606Z,95315.00
2018-07-16T01:30:31.606Z,95307.00
2018-07-16T01:33:03.654Z,95308.00
2018-07-16T01:35:35.650Z,95306.00
2018-07-16T01:38:07.582Z,95311.00
2018-07-16T01:40:39.629Z,95305.00
2018-07-16T01:43:13.292Z,95311.00
2018-07-16T01:45:45.212Z,95307.00
2018-07-16T01:48:17.117Z,95310.00
2018-07-16T01:50:49.225Z,95307.00
2018-07-16T01:53:21.182Z,95307.00
2018-07-16T01:55:53.170Z,95302.00
2018-07-16T01:58:25.364Z,95294.00
2018-07-16T02:01:02.241Z,95297.00
2018-07-16T02:03:34.941Z,95291.00
2018-07-16T02:06:06.972Z,95292.00
2018-07-16T02:08:38.711Z,95291.00
2018-07-16T02:11:10.611Z,95288.00
2018-07-16T02:13:42.675Z,95288.00
2018-07-16T02:16:14.630Z,95288.00
2018-07-16T02:18:46.613Z,95281.00
2018-07-16T02:21:18.615Z,95273.00
2018-07-16T02:23:50.445Z,95272.00
2018-07-16T02:26:22.433Z,95269.00
2018-07-16T02:28:54.221Z,95267.00
2018-07-16T02:31:26.105Z,95266.00
2018-07-16T02:33:58.022Z,95264.00
2018-07-16T02:36:29.930Z,95264.00
2018-07-16T02:39:01.854Z,95272.00
2018-07-16T02:41:33.862Z,95271.00
2018-07-16T02:44:05.871Z,95277.00
2018-07-16T02:46:37.872Z,95284.00
2018-07-16T02:49:09.735Z,95283.00
2018-07-16T02:51:41.665Z,95276.00
2018-07-16T02:54:15.034Z,95271.00
2018-07-16T02:56:47.022Z,95276.00
2018-07-16T02:59:19.651Z,95284.00
2018-07-16T03:01:51.592Z,95290.00
2018-07-16T03:04:23.005Z,95288.00
2018-07-16T03:06:54.730Z,95285.00
2018-07-16T03:09:26.610Z,95289.00
2018-07-16T03:11:58.508Z,95292.00
2018-07-16T03:14:30.814Z,95281.00
2018-07-16T03:17:02.753Z,95284.00
2018-07-16T03:19:34.694Z,95291.00
2018-07-16T03:22:07.182Z,95287.00
2018-07-16T03:24:39.070Z,95289.00
2018-07-16T03:27:11.045Z,95290.00
2018-07-16T03:29:42.874Z,95282.00
2018-07-16T03:32:14.832Z,95285.00
2018-07-16T03:34:47.622Z,95288.00
2018-07-16T03:37:19.991Z,95288.00
2018-07-16T03:39:52.002Z,95291.00
2018-07-16T03:42:23.971Z,95292.00
2018-07-16T03:44:55.910Z,95287.00
2018-07-16T03:47:28.362Z,95290.00
2018-07-16T03:50:00.230Z,95290.00
2018-07-16T03:52:32.402Z,95292.00
2018-07-16T03:55:04.312Z,95294.00
2018-07-16T03:57:36.290Z,95290.00
2018-07-16T04:00:08.416Z,95287.00
2018-07-16T04:02:40.349Z,95289.00
2018-07-16T04:05:12.254Z,95287.00
2018-07-16T04:07:44.202Z,95285.00
2018-07-16T04:10:16.972Z,95293.00
2018-07-16T04:12:48.794Z,95293.00
2018-07-16T04:15:20.582Z,95294.00
2018-07-16T04:17:52.515Z,95288.00
2018-07-16T04:20:24.470Z,95292.00
2018-07-16T04:22:56.362Z,95293.00
2018-07-16T04:25:28.130Z,95295.00
2018-07-16T04:28:00.552Z,95296.00
2018-07-16T04:30:34.218Z,95296.00
2018-07-16T04:33:06.092Z,95305.00
2018-07-16T04:35:38.070Z,95308.00
2018-07-16T04:38:10.098Z,95314.00
2018-07-16T04:40:42.126Z,95316.00
2018-07-16T04:43:13.552Z,95317.00
2018-07-16T04:45:45.227Z,95314.00
2018-07-16T04:48:17.129Z,95313.00
2018-07-16T04:50:49.230Z,95310.00
2018-07-16T04:53:21.645Z,95310.00
2018-07-16T04:55:53.601Z,95307.00
2018-07-16T04:58:25.572Z,95306.00
2018-07-16T05:00:57.615Z,95304.00
2018-07-16T05:03:29.082Z,95310.00
2018-07-16T05:06:00.251Z,95313.00
2018-07-16T05:08:31.870Z,95313.00
2018-07-16T05:11:03.655Z,95316.00
2018-07-16T05:13:35.563Z,95316.00
2018-07-16T05:16:08.757Z,95311.00
2018-07-16T05:18:40.602Z,95311.00
2018-07-16T05:21:12.884Z,95308.00
2018-07-16T05:23:44.813Z,95312.00
2018-07-16T05:26:16.730Z,95305.00
2018-07-16T05:28:49.115Z,95297.00
2018-07-16T05:31:20.867Z,95302.00
2018-07-16T05:33:52.260Z,95293.00
2018-07-16T05:36:24.622Z,95295.00
2018-07-16T05:38:56.818Z,95288.00
2018-07-16T05:41:28.680Z,95289.00
2018-07-16T05:44:00.385Z,95295.00
2018-07-16T05:46:32.187Z,95296.00
2018-07-16T05:49:04.222Z,95293.00
2018-07-16T05:51:36.099Z,95292.00
2018-07-16T05:54:08.073Z,95289.00
2018-07-16T05:56:39.624Z,95277.00
2018-07-16T05:59:11.342Z,95279.00
2018-07-16T06:01:43.162Z,95274.00
2018-07-16T06:04:15.050Z,95264.00
2018-07-16T06:06:46.862Z,95267.00
2018-07-16T06:09:18.302Z,95269.00
2018-07-16T06:11:50.142Z,95277.00
2018-07-16T06:14:23.241Z,95274.00
2018-07-16T06:16:56.171Z,95288.00
2018-07-16T06:19:28.041Z,95292.00
2018-07-16T06:21:59.796Z,95301.00
2018-07-16T06:24:32.091Z,95300.00
2018-07-16T06:27:03.949Z,95308.00
2018-07-16T06:29:35.831Z,95302.00
2018-07-16T06:32:09.153Z,95298.00
2018-07-16T06:34:41.082Z,95299.00
2018-07-16T06:37:13.056Z,95299.00
2018-07-16T06:39:45.945Z,95302.00
2018-07-16T06:42:17.788Z,95296.00
2018-07-16T06:44:50.704Z,95290.00
2018-07-16T06:47:22.642Z,95280.00
2018-07-16T06:49:54.519Z,95280.00
2018-07-16T06:52:26.731Z,95278.00
2018-07-16T06:54:58.626Z,95276.00
2018-07-16T06:57:30.491Z,95276.00
2018-07-16T07:00:01.959Z,95271.00
2018-07-16T07:02:33.611Z,95267.00
2018-07-16T07:05:05.690Z,95273.00
2018-07-16T07:07:37.687Z,95269.00
2018-07-16T07:10:09.768Z,95265.00
2018-07-16T07:12:41.863Z,95264.00
2018-07-16T07:15:13.881Z,95268.00
2018-07-16T07:17:45.817Z,95270.00
2018-07-16T07:20:17.451Z,95275.00
2018-07-16T07:22:49.316Z,95274.00
2018-07-16T07:25:21.345Z,95268.00
2018-07-16T07:27:53.282Z,95267.00
2018-07-16T07:30:25.247Z,95273.00
2018-07-16T07:32:57.262Z,95273.00
2018-07-16T07:35:29.315Z,95277.00
2018-07-16T07:38:01.316Z,95274.00
2018-07-16T07:40:33.350Z,95272.00
2018-07-16T07:43:05.400Z,95271.00
2018-07-16T07:45:37.522Z,95261.00
2018-07-16T07:48:09.536Z,95263.00
2018-07-16T07:50:41.553Z,95258.00
2018-07-16T07:53:13.463Z,95259.00
2018-07-16T07:55:45.574Z,95261.00
2018-07-16T07:58:17.507Z,95268.00
2018-07-16T08:00:49.527Z,95268.00
2018-07-16T08:03:21.431Z,95261.00
2018-07-16T08:05:58.613Z,95258.00
2018-07-16T08:08:30.676Z,95253.00
2018-07-16T08:11:03.492Z,95253.00
2018-07-16T08:13:35.535Z,95250.00
2018-07-16T08:16:07.590Z,95253.00
2018-07-16T08:18:39.586Z,95244.00
2018-07-16T08:21:11.652Z,95246.00
2018-07-16T08:23:43.572Z,95245.00
2018-07-16T08:26:15.833Z,95244.00
2018-07-16T08:28:47.774Z,95239.00
2018-07-16T08:31:19.791Z,95228.00
2018-07-16T08:33:51.660Z,95220.00
2018-07-16T08:36:23.139Z,95219.00
2018-07-16T08:38:54.941Z,95213.00
2018-07-16T08:41:27.208Z,95210.00
2018-07-16T08:43:59.583Z,95206.00
2018-07-16T08:46:31.679Z,95199.00
2018-07-16T08:49:03.711Z,95199.00
2018-07-16T08:51:35.693Z,95191.00
2018-07-16T08:54:07.671Z,95191.00
2018-07-16T08:56:39.727Z,95188.00
2018-07-16T08:59:11.669Z,95190.00
2018-07-16T09:01:43.702Z,95185.00
2018-07-16T09:04:15.615Z,95182.00
2018-07-16T09:06:47.595Z,95183.00
2018-07-16T09:09:19.494Z,95179.00
2018-07-16T09:11:51.530Z,95181.00
2018-07-16T09:14:23.921Z,95182.00
2018-07-16T09:16:56.034Z,95174.00
2018-07-16T09:19:27.437Z,95175.00
2018-07-16T09:21:59.274Z,95181.00
2018-07-16T09:24:31.185Z,95182.00
2018-07-16T09:27:03.286Z,95188.00
2018-07-16T09:29:35.287Z,95183.00
2018-07-16T09:32:07.390Z,95178.00
2018-07-16T09:34:39.375Z,95174.00
2018-07-16T09:37:11.501Z,95171.00
2018-07-16T09:39:43.583Z,95164.00
2018-07-16T09:42:15.602Z,95164.00
2018-07-16T09:44:47.543Z,95163.00
2018-07-16T09:47:19.531Z,95171.00
2018-07-16T09:49:51.215Z,95171.00
2018-07-16T09:52:23.004Z,95161.00
2018-07-16T09:54:54.990Z,95153.00
2018-07-16T09:57:26.990Z,95152.00
2018-07-16T09:59:59.100Z,95154.00
2018-07-16T10:02:31.194Z,95144.00
2018-07-16T10:05:03.224Z,95151.00
2018-07-16T10:07:35.402Z,95141.00
2018-07-16T10:10:07.779Z,95136.00
2018-07-16T10:12:39.591Z,95138.00
2018-07-16T10:15:11.195Z,95136.00
2018-07-16T10:17:42.992Z,95134.00
2018-07-16T10:20:14.949Z,95132.00
2018-07-16T10:22:46.990Z,95134.00
2018-07-16T10:25:19.024Z,95124.00
2018-07-16T10:27:51.065Z,95117.00
2018-07-16T10:30:23.061Z,95110.00
2018-07-16T10:32:55.209Z,95109.00
2018-07-16T10:35:27.258Z,95103.00
2018-07-16T10:37:59.434Z,95101.00
2018-07-16T10:40:31.449Z,95099.00
2018-07-16T10:43:03.402Z,95093.00
2018-07-16T10:45:35.530Z,95087.00
2018-07-16T10:48:07.875Z,95093.00
2018-07-16T10:50:39.949Z,95088.00
2018-07-16T10:53:11.966Z,95082.00
2018-07-16T10:55:46.915Z,95077.00
2018-07-16T10:58:18.892Z,95073.00
2018-07-16T11:00:50.392Z,95066.00
2018-07-16T11:03:22.273Z,95060.00
2018-07-16T11:05:54.263Z,95050.00
2018-07-16T11:08:26.309Z,95054.00
2018-07-16T11:10:58.365Z,95045.00
2018-07-16T11:13:30.479Z,95043.00
2018-07-16T11:16:02.468Z,95039.00
2018-07-16T11:18:34.550Z,95041.00
2018-07-16T11:21:06.549Z,95037.00
2018-07-16T11:23:38.524Z,95037.00
2018-07-16T11:26:10.514Z,95028.00
2018-07-16T11:28:42.144Z,95027.00
2018-07-16T11:31:14.007Z,95023.00
2018-07-16T11:33:46.130Z,95024.00
2018-07-16T11:36:18.158Z,95021.00
2018-07-16T11:38:50.162Z,95013.00
2018-07-16T11:41:22.054Z,95019.00
2018-07-16T11:43:54.305Z,95020.00
2018-07-16T11:46:26.183Z,95012.00
2018-07-16T11:48:58.092Z,95003.00
2018-07-16T11:51:30.075Z,95001.00
2018-07-16T11:54:01.971Z,94995.00
2018-07-16T11:56:33.929Z,94990.00
2018-07-16T11:59:05.922Z,94986.00
2018-07-16T12:01:37.909Z,94980.00
2018-07-16T12:04:10.109Z,94980.00
2018-07-16T12:06:42.423Z,94974.00
2018-07-16T12:09:14.242Z,94959.00
2018-07-16T12:11:46.156Z,94958.00
2018-07-16T12:14:18.030Z,94954.00
2018-07-16T12:16:49.930Z,94954.00
2018-07-16T12:19:22.282Z,94953.00
2018-07-16T12:21:54.125Z,94939.00
2018-07-16T12:24:26.010Z,94926.00
2018-07-16T12:26:57.814Z,94943.00
2018-07-16T12:29:29.693Z,94941.00
2018-07-16T12:32:01.511Z,94928.00
2018-07-16T12:34:33.482Z,94927.00
2018-07-16T12:37:05.456Z,94927.00
2018-07-16T12:39:37.322Z,94930.00
2018-07-16T12:42:09.246Z,94939.00
2018-07-16T12:44:41.134Z,94934.00
2018-07-16T12:47:12.995Z,94933.00
2018-07-16T12:49:44.919Z,94924.00
2018-07-16T12:52:16.869Z,94919.00
2018-07-16T12:54:48.950Z,94916.00
2018-07-16T12:57:20.903Z,94904.00
2018-07-16T12:59:52.903Z,94895.00
2018-07-16T13:02:24.311Z,94882.00
2018-07-16T13:04:55.969Z,94876.00
2018-07-16T13:07:27.888Z,94859.00
2018-07-16T13:09:59.783Z,94856.00
2018-07-16T13:12:31.645Z,94849.00
2018-07-16T13:15:03.631Z,94850.00
2018-07-16T13:17:35.494Z,94845.00
2018-07-16T13:20:07.636Z,94845.00
2018-07-16T13:22:40.422Z,94855.00
2018-07-16T13:25:12.452Z,94850.00
2018-07-16T13:27:44.279Z,94867.00
2018-07-16T13:30:16.549Z,94858.00
2018-07-16T13:32:48.380Z,94855.00
2018-07-16T13:35:20.993Z,94851.00
2018-07-16T13:37:52.942Z,94862.00
2018-07-16T13:40:25.202Z,94865.00
2018-07-16T13:42:57.175Z,94874.00
2018-07-16T13:45:28.892Z,94871.00
2018-07-16T13:48:00.531Z,94865.00
2018-07-16T13:50:32.574Z,94873.00
2018-07-16T13:53:03.984Z,94870.00
2018-07-16T13:55:35.663Z,94874.00
2018-07-16T13:58:07.744Z,94876.00
2018-07-16T14:00:39.649Z,94883.00
2018-07-16T14:03:11.678Z,94887.00
2018-07-16T14:05:43.639Z,94886.00
2018-07-16T14:08:15.478Z,94890.00
2018-07-16T14:10:47.461Z,94883.00
2018-07-16T14:13:20.061Z,94891.00
2018-07-16T14:15:52.323Z,94893.00
2018-07-16T14:18:24.133Z,94884.00
2018-07-16T14:20:56.438Z,94877.00
2018-07-16T14:23:28.237Z,94876.00
2018-07-16T14:26:00.569Z,94874.00
2018-07-16T14:28:32.431Z,94867.00
2018-07-16T14:31:04.323Z,94857.00
2018-07-16T14:33:36.182Z,94864.00
2018-07-16T14:36:08.351Z,94868.00
2018-07-16T14:38:40.324Z,94863.00
2018-07-16T14:41:12.218Z,94859.00
2018-07-16T14:43:44.410Z,94859.00
2018-07-16T14:46:16.365Z,94852.00
2018-07-16T14:48:48.254Z,94856.00
2018-07-16T14:51:20.374Z,94848.00
2018-07-16T14:53:52.305Z,94846.00
2018-07-16T14:56:24.270Z,94842.00
2018-07-16T14:58:56.293Z,94842.00
2018-07-16T15:01:28.225Z,94848.00
2018-07-16T15:04:00.205Z,94854.00
2018-07-16T15:06:32.134Z,94857.00
2018-07-16T15:09:04.682Z,94851.00
2018-07-16T15:11:37.119Z,94847.00
2018-07-16T15:14:09.236Z,94838.00
2018-07-16T15:16:41.150Z,94834.00
2018-07-16T15:19:12.978Z,94836.00
2018-07-16T15:21:45.301Z,94838.00
2018-07-16T15:24:17.292Z,94830.00
2018-07-16T15:26:49.255Z,94827.00
2018-07-16T15:29:21.264Z,94833.00
2018-07-16T15:31:53.263Z,94841.00
2018-07-16T15:34:25.259Z,94831.00
2018-07-16T15:36:57.523Z,94824.00
2018-07-16T15:39:29.518Z,94826.00
2018-07-16T15:42:01.434Z,94829.00
2018-07-16T15:44:33.790Z,94821.00
2018-07-16T15:47:05.830Z,94815.00
2018-07-16T15:49:38.410Z,94814.00
2018-07-16T15:52:10.284Z,94810.00
2018-07-16T15:54:43.170Z,94814.00
2018-07-16T15:57:15.422Z,94816.00
2018-07-16T15:59:47.354Z,94818.00
2018-07-16T16:02:19.444Z,94822.00
2018-07-16T16:04:51.690Z,94813.00
2018-07-16T16:07:23.745Z,94812.00
2018-07-16T16:09:55.630Z,94803.00
2018-07-16T16:12:27.542Z,94806.00
2018-07-16T16:14:59.593Z,94789.00
2018-07-16T16:17:31.572Z,94791.00
2018-07-16T16:20:03.464Z,94792.00
2018-07-16T16:22:35.374Z,94795.00
2018-07-16T16:25:07.270Z,94806.00
2018-07-16T16:27:39.201Z,94793.00
2018-07-16T16:30:11.082Z,94797.00
2018-07-16T16:32:43.449Z,94796.00
2018-07-16T16:35:15.357Z,94786.00
2018-07-16T16:37:47.626Z,94791.00
2018-07-16T16:40:19.631Z,94791.00
2018-07-16T16:42:51.575Z,94785.00
2018-07-16T16:45:23.488Z,94789.00
2018-07-16T16:47:55.530Z,94783.00
2018-07-16T16:50:27.862Z,94781.00
2018-07-16T16:52:59.907Z,94778.00
2018-07-16T16:55:31.834Z,94777.00
2018-07-16T16:58:04.147Z,94778.00
2018-07-16T17:00:36.073Z,94788.00
2018-07-16T17:03:08.138Z,94783.00
2018-07-16T17:05:40.192Z,94788.00
2018-07-16T17:08:12.095Z,94793.00
2018-07-16T17:10:43.941Z,94797.00
2018-07-16T17:13:16.031Z,94799.00
2018-07-16T17:15:48.413Z,94798.00
2018-07-16T17:18:21.765Z,94791.00
2018-07-16T17:20:53.951Z,94797.00
2018-07-16T17:23:26.069Z,94798.00
2018-07-16T17:25:59.662Z,94790.00
2018-07-16T17:28:31.500Z,94793.00
2018-07-16T17:31:03.478Z,94791.00
2018-07-16T17:33:35.468Z,94787.00
2018-07-16T17:36:07.613Z,94778.00
2018-07-16T17:38:39.679Z,94781.00
2018-07-16T17:41:11.744Z,94786.00
2018-07-16T17:43:43.809Z,94789.00
2018-07-16T17:46:15.946Z,94795.00
2018-07-16T17:48:47.995Z,94803.00
2018-07-16T17:51:20.028Z,94794.00
2018-07-16T17:53:52.333Z,94801.00
2018-07-16T17:56:24.324Z,94811.00
2018-07-16T17:58:56.614Z,94817.00
2018-07-16T18:01:28.795Z,94818.00
2018-07-16T18:04:00.920Z,94823.00
2018-07-16T18:06:32.933Z,94830.00
2018-07-16T18:09:06.447Z,94839.00
2018-07-16T18:11:38.048Z,94851.00
2018-07-16T18:14:09.993Z,94858.00
2018-07-16T18:16:41.965Z,94863.00
2018-07-16T18:19:14.073Z,94868.00
2018-07-16T18:21:46.085Z,94858.00
2018-07-16T18:24:18.032Z,94873.00
2018-07-16T18:26:50.308Z,94868.00
2018-07-16T18:29:22.597Z,94875.00
2018-07-16T18:31:54.649Z,94876.00
2018-07-16T18:34:26.356Z,94881.00
2018-07-16T18:36:58.396Z,94880.00
2018-07-16T18:39:30.458Z,94883.00
2018-07-16T18:42:02.488Z,94888.00
2018-07-16T18:44:34.497Z,94889.00
2018-07-16T18:47:06.539Z,94891.00
2018-07-16T18:49:38.823Z,94888.00
2018-07-16T18:52:10.931Z,94890.00
2018-07-16T18:54:42.968Z,94889.00
2018-07-16T18:57:15.059Z,94893.00
2018-07-16T18:59:46.877Z,94895.00
2018-07-16T19:02:18.593Z,94889.00
2018-07-16T19:04:51.481Z,94892.00
2018-07-16T19:07:24.174Z,94896.00
2018-07-16T19:09:56.332Z,94902.00
2018-07-16T19:12:28.464Z,94911.00
2018-07-16T19:15:01.476Z,94915.00
2018-07-16T19:17:33.722Z,94921.00
2018-07-16T19:20:06.011Z,94914.00
2018-07-16T19:22:38.007Z,94909.00
2018-07-16T19:25:10.142Z,94898.00
2018-07-16T19:27:42.601Z,94909.00
2018-07-16T19:30:14.716Z,94909.00
2018-07-16T19:32:46.813Z,94911.00
2018-07-16T19:35:18.867Z,94908.00
2018-07-16T19:37:50.803Z,94912.00
2018-07-16T19:40:22.790Z,94915.00
2018-07-16T19:42:54.803Z,94916.00
2018-07-16T19:45:26.333Z,94910.00
2018-07-16T19:47:58.007Z,94914.00
2018-07-16T19:50:29.953Z,94922.00
2018-07-16T19:53:01.885Z,94927.00
2018-07-16T19:55:33.944Z,94935.00
2018-07-16T19:58:07.144Z,94940.00
2018-07-16T20:00:39.102Z,94942.00
2018-07-16T20:03:11.373Z,94939.00
2018-07-16T20:05:43.423Z,94938.00
2018-07-16T20:08:15.850Z,94941.00
2018-07-16T20:10:47.916Z,94949.00
2018-07-16T20:13:19.886Z,94946.00
2018-07-16T20:15:51.890Z,94946.00
2018-07-16T20:18:24.131Z,94942.00
2018-07-16T20:21:00.142Z,94947.00
2018-07-16T20:23:32.036Z,94948.00
2018-07-16T20:26:04.090Z,94949.00
2018-07-16T20:28:36.176Z,94950.00
2018-07-16T20:31:08.181Z,94950.00
2018-07-16T20:33:40.693Z,94955.00
2018-07-16T20:36:12.722Z,94946.00
2018-07-16T20:38:45.706Z,94939.00
2018-07-16T20:41:18.899Z,94934.00
2018-07-16T20:43:50.945Z,94940.00
2018-07-16T20:46:22.930Z,94940.00
2018-07-16T20:48:54.930Z,94947.00
2018-07-16T20:51:26.885Z,94957.00
2018-07-16T20:53:59.426Z,94949.00
2018-07-16T20:56:31.571Z,94957.00
2018-07-16T20:59:03.491Z,94953.00
2018-07-16T21:01:35.243Z,94954.00
2018-07-16T21:04:07.613Z,94957.00
2018-07-16T21:06:39.585Z,94960.00
2018-07-16T21:09:11.675Z,94961.00
2018-07-16T21:11:43.176Z,94962.00
2018-07-16T21:14:15.253Z,94958.00
2018-07-16T21:16:47.207Z,94957.00
2018-07-16T21:19:19.139Z,94955.00
2018-07-16T21:21:51.090Z,94959.00
2018-07-16T21:24:23.071Z,94958.00
2018-07-16T21:26:55.095Z,94960.00
2018-07-16T21:29:27.050Z,94957.00
2018-07-16T21:31:58.970Z,94960.00
2018-07-16T21:34:30.987Z,94960.00
2018-07-16T21:37:02.751Z,94965.00
2018-07-16T21:39:34.802Z,94962.00
2018-07-16T21:42:07.482Z,94964.00
2018-07-16T21:44:39.593Z,94965.00
2018-07-16T21:47:11.530Z,94966.00
2018-07-16T21:49:43.522Z,94964.00
2018-07-16T21:52:16.232Z,94964.00
2018-07-16T21:54:48.081Z,94976.00
2018-07-16T21:57:19.962Z,94977.00
2018-07-16T21:59:51.782Z,94983.00
2018-07-16T22:02:23.514Z,94980.00
2018-07-16T22:04:56.309Z,94989.00
2018-07-16T22:07:28.190Z,94994.00
2018-07-16T22:10:00.056Z,95004.00
2018-07-16T22:12:31.891Z,95006.00
2018-07-16T22:15:04.171Z,95011.00
2018-07-16T22:17:36.530Z,95015.00
2018-07-16T22:20:08.515Z,95016.00
2018-07-16T22:22:40.410Z,95019.00
2018-07-16T22:25:12.364Z,95015.00
2018-07-16T22:27:44.071Z,95018.00
2018-07-16T22:30:15.906Z,95022.00
2018-07-16T22:32:47.810Z,95023.00
2018-07-16T22:35:20.268Z,95029.00
2018-07-16T22:37:52.310Z,95027.00
2018-07-16T22:40:24.327Z,95027.00
2018-07-16T22:42:56.362Z,95027.00
2018-07-16T22:45:28.330Z,95028.00
2018-07-16T22:48:00.690Z,95026.00
2018-07-16T22:50:32.572Z,95027.00
2018-07-16T22:53:04.534Z,95023.00
2018-07-16T22:55:36.735Z,95029.00
2018-07-16T22:58:08.649Z,95040.00
2018-07-16T23:00:40.622Z,95037.00
2018-07-16T23:03:12.730Z,95037.00
2018-07-16T23:05:44.464Z,95040.00
2018-07-16T23:08:18.674Z,95037.00
2018-07-16T23:10:50.927Z,95037.00
2018-07-16T23:13:23.590Z,95038.00
2018-07-16T23:15:55.470Z,95037.00
2018-07-16T23:18:27.475Z,95042.00
2018-07-16T23:20:59.302Z,95042.00
2018-07-16T23:23:31.305Z,95045.00
2018-07-16T23:26:03.412Z,95041.00
2018-07-16T23:28:35.406Z,95047.00
2018-07-16T23:31:08.297Z,95050.00
2018-07-16T23:33:40.201Z,95058.00
2018-07-16T23:36:12.630Z,95062.00
2018-07-16T23:38:44.551Z,95062.00
2018-07-16T23:41:16.714Z,95054.00
2018-07-16T23:43:48.742Z,95057.00
2018-07-16T23:46:20.951Z,95057.00
2018-07-16T23:48:52.905Z,95055.00
2018-07-16T23:51:25.110Z,95064.00
2018-07-16T23:53:57.022Z,95060.00
2018-07-16T23:56:29.010Z,95061.00
2018-07-16T23:59:00.922Z,95061.00
